Time;durP1;ratioP1;P1;durP2;ratioP2;P2;SDS_P1;SDS_P2;PMS_P1;PMS_P2;Temp;Humidity;BMP_temperature;BMP_pressure;BME280_temperature;BME280_humidity;BME280_pressure;Samples;Min_cycle;Max_cycle;Signal;HPM_P1;HPM_P2
2022/01/15 00:00:01;;;;;;;21.08;8.90;;;;;;;1.10;91.41;101244.25;4500901;31;20428;-64
2022/01/15 00:02:28;;;;;;;21.12;9.40;;;;;;;1.03;93.37;101240.53;4500643;31;20171;-64
2022/01/15 00:04:56;;;;;;;16.02;7.45;;;;;;;1.08;93.62;101245.91;4500574;31;20125;-64
2022/01/15 00:07:23;;;;;;;19.15;8.35;;;;;;;1.13;93.99;101249.56;4500532;31;20115;-64
2022/01/15 00:09:50;;;;;;;14.15;8.10;;;;;;;1.32;92.99;101254.66;4500633;31;20110;-64
2022/01/15 00:12:18;;;;;;;23.10;9.23;;;;;;;1.54;92.71;101263.28;4500476;31;20187;-64
2022/01/15 00:14:45;;;;;;;19.92;9.70;;;;;;;1.58;92.31;101262.56;4500487;31;20155;-64
2022/01/15 00:17:43;;;;;;;17.37;9.00;;;;;;;1.47;92.65;101263.87;4500460;31;20130;-65
2022/01/15 00:20:09;;;;;;;14.90;7.75;;;;;;;1.39;93.15;101261.88;4500248;31;20084;-64
2022/01/15 00:22:36;;;;;;;16.15;8.38;;;;;;;1.52;92.57;101257.13;4500311;31;20103;-64
2022/01/15 00:25:04;;;;;;;14.60;8.05;;;;;;;1.51;92.60;101264.03;4501928;31;20690;-64
2022/01/15 00:27:31;;;;;;;17.95;7.95;;;;;;;1.48;92.28;101268.22;4502678;31;20141;-64
2022/01/15 00:29:58;;;;;;;18.35;8.15;;;;;;;1.47;92.92;101272.53;4502565;31;20087;-64
2022/01/15 00:32:25;;;;;;;26.73;11.82;;;;;;;1.78;91.23;101268.53;4502473;31;20111;-64
2022/01/15 00:34:52;;;;;;;16.90;8.07;;;;;;;1.74;91.76;101275.34;4502526;31;20095;-64
2022/01/15 00:37:20;;;;;;;17.60;8.50;;;;;;;1.73;92.37;101270.94;4502548;31;20152;-64
2022/01/15 00:39:47;;;;;;;13.82;7.25;;;;;;;2.00;91.15;101278.03;4502476;31;20088;-64
2022/01/15 00:42:14;;;;;;;15.30;7.50;;;;;;;2.19;90.18;101279.56;4502784;31;20116;-64
2022/01/15 00:44:42;;;;;;;16.52;7.78;;;;;;;2.14;90.08;101282.00;4502446;31;20095;-64
2022/01/15 00:47:09;;;;;;;13.10;7.53;;;;;;;2.19;89.67;101280.50;4502481;31;20088;-64
2022/01/15 00:49:36;;;;;;;14.52;7.62;;;;;;;2.13;90.12;101277.66;4502468;31;20143;-64
2022/01/15 00:52:04;;;;;;;15.50;7.30;;;;;;;2.13;89.93;101285.44;4502480;31;20091;-64
2022/01/15 00:54:31;;;;;;;10.48;6.28;;;;;;;2.12;90.03;101286.25;4502372;31;20451;-64
2022/01/15 00:56:58;;;;;;;13.38;7.32;;;;;;;2.20;89.76;101287.44;4502640;31;20088;-64
2022/01/15 00:59:25;;;;;;;11.05;6.78;;;;;;;2.25;89.33;101292.81;4502402;31;20092;-64
2022/01/15 01:01:52;;;;;;;9.95;5.25;;;;;;;2.27;89.36;101286.84;4502238;31;20100;-64
2022/01/15 01:04:21;;;;;;;11.77;5.47;;;;;;;2.34;89.07;101296.62;4502419;31;20136;-64
2022/01/15 01:06:48;;;;;;;19.05;7.55;;;;;;;2.34;89.00;101298.34;4502406;31;20092;-64
2022/01/15 01:09:15;;;;;;;11.07;5.70;;;;;;;2.32;89.15;101295.69;4502277;31;20434;-64
2022/01/15 01:11:53;;;;;;;14.18;6.57;;;;;;;2.25;89.50;101314.50;4502313;31;20115;-64
2022/01/15 01:20:11;;;;;;;12.55;7.60;;;;;;;2.34;89.24;101306.16;4476897;31;20163;-64
2022/01/15 01:25:11;;;;;;;14.30;7.00;;;;;;;2.34;89.15;101299.22;4502104;31;20092;-64
2022/01/15 01:27:49;;;;;;;9.85;5.50;;;;;;;2.37;89.23;101308.88;4502051;31;20656;-64
2022/01/15 01:30:23;;;;;;;12.57;6.45;;;;;;;2.40;89.20;101306.34;4502172;31;20447;-64
2022/01/15 01:33:41;;;;;;;16.35;8.25;;;;;;;2.35;89.15;101321.78;4502229;31;20204;-64
2022/01/15 01:35:42;;;;;;;16.83;8.40;;;;;;;2.37;89.29;101316.66;4493101;31;20187;-65
2022/01/15 01:38:28;;;;;;;16.83;4.87;;;;;;;2.36;89.11;101307.06;4502071;31;20182;-64
2022/01/15 01:40:58;;;;;;;15.52;7.18;;;;;;;2.33;89.68;101318.28;4502147;31;20083;-64
2022/01/15 01:46:46;;;;;;;11.98;4.82;;;;;;;2.41;89.10;101322.88;4502103;31;20492;-64
2022/01/15 01:49:01;;;;;;;11.43;5.80;;;;;;;2.45;89.11;101317.81;4499727;31;20106;-64
2022/01/15 01:51:31;;;;;;;15.25;7.30;;;;;;;2.44;88.93;101313.47;4501980;31;20159;-64
2022/01/15 01:54:00;;;;;;;13.25;5.80;;;;;;;2.39;88.89;101317.59;4502281;31;20092;-64
2022/01/15 01:56:28;;;;;;;14.65;6.20;;;;;;;2.32;89.34;101303.47;4501833;31;20095;-64
2022/01/15 01:58:55;;;;;;;16.37;7.10;;;;;;;2.21;89.99;101301.31;4501905;31;20092;-65
2022/01/15 02:01:23;;;;;;;17.45;7.95;;;;;;;2.21;89.99;101301.31;4501884;31;20500;-64
2022/01/15 02:03:51;;;;;;;12.57;6.12;;;;;;;2.12;90.19;101312.25;4501798;31;20100;-64
2022/01/15 02:06:19;;;;;;;15.23;7.12;;;;;;;2.04;90.62;101313.69;4501909;31;20167;-64
2022/01/15 02:08:48;;;;;;;13.18;6.60;;;;;;;2.11;90.44;101320.88;4501982;31;20106;-64
2022/01/15 02:11:16;;;;;;;13.05;7.07;;;;;;;2.07;90.47;101311.22;4501900;31;20156;-64
2022/01/15 02:13:46;;;;;;;13.80;7.30;;;;;;;2.01;90.85;101309.25;4501840;31;20164;-64
2022/01/15 02:16:15;;;;;;;12.52;6.68;;;;;;;2.03;90.78;101318.00;4501736;31;20099;-64
2022/01/15 02:18:43;;;;;;;12.30;7.12;;;;;;;2.06;90.52;101319.84;4501821;31;20118;-65
2022/01/15 02:23:46;;;;;;;14.98;7.78;;;;;;;1.77;91.93;101319.62;4501949;31;20107;-65
2022/01/15 02:26:19;;;;;;;15.50;6.78;;;;;;;1.72;91.51;101321.16;4501725;31;20473;-65
2022/01/15 02:28:58;;;;;;;13.80;7.25;;;;;;;1.49;92.78;101332.37;4501838;31;20102;-65
2022/01/15 02:31:27;;;;;;;15.80;7.22;;;;;;;1.38;93.49;101329.34;4501933;31;20084;-64
2022/01/15 02:33:57;;;;;;;13.20;6.80;;;;;;;1.39;93.04;101321.59;4501812;31;20088;-65
2022/01/15 02:36:28;;;;;;;14.02;7.00;;;;;;;1.57;92.40;101325.75;4501681;31;20116;-64
2022/01/15 02:38:55;;;;;;;15.30;7.35;;;;;;;1.34;93.04;101323.12;4501680;31;20075;-65
2022/01/15 02:41:27;;;;;;;16.10;7.10;;;;;;;1.24;93.92;101315.78;4501785;31;20096;-64
2022/01/15 02:44:00;;;;;;;14.87;7.45;;;;;;;1.31;93.97;101317.81;4501664;31;20107;-65
2022/01/15 02:48:58;;;;;;;12.65;6.90;;;;;;;1.29;94.11;101303.00;4500311;31;20075;-65
2022/01/15 02:51:30;;;;;;;14.13;8.05;;;;;;;1.17;94.51;101305.97;4501577;31;20148;-65
2022/01/15 02:53:57;;;;;;;14.95;7.05;;;;;;;1.22;94.40;101291.47;4501576;31;20076;-65
2022/01/15 02:56:27;;;;;;;15.93;8.40;;;;;;;1.28;94.27;101293.44;4501520;31;20091;-65
2022/01/15 02:58:55;;;;;;;13.62;7.18;;;;;;;1.26;94.36;101288.16;4501474;31;20079;-65
2022/01/15 03:01:22;;;;;;;12.63;7.00;;;;;;;1.29;94.29;101288.28;4501417;31;20126;-65
2022/01/15 03:03:50;;;;;;;15.68;7.03;;;;;;;1.29;94.27;101287.41;4501227;31;20407;-65
2022/01/15 03:06:20;;;;;;;14.77;7.40;;;;;;;1.28;94.67;101296.91;4501489;31;20114;-64
2022/01/15 03:08:49;;;;;;;14.57;6.95;;;;;;;1.41;94.00;101287.87;4501301;31;20083;-65
2022/01/15 03:11:18;;;;;;;14.32;7.53;;;;;;;1.37;94.26;101294.66;4501684;31;20116;-65
2022/01/15 03:13:46;;;;;;;16.20;7.65;;;;;;;1.33;94.29;101300.56;4501420;31;20164;-65
2022/01/15 03:16:17;;;;;;;13.40;7.47;;;;;;;1.22;94.72;101291.47;4501251;31;20182;-65
2022/01/15 03:18:45;;;;;;;14.32;6.87;;;;;;;1.16;94.73;101293.81;4501256;31;20151;-65
2022/01/15 03:21:12;;;;;;;13.18;7.32;;;;;;;1.10;95.43;101290.97;4501153;31;20403;-64
2022/01/15 03:23:40;;;;;;;13.57;6.90;;;;;;;1.05;95.51;101290.78;4501228;31;20490;-64
2022/01/15 03:26:08;;;;;;;15.52;7.80;;;;;;;1.01;95.79;101299.25;4501189;31;20099;-64
2022/01/15 03:28:35;;;;;;;12.13;6.60;;;;;;;0.96;96.25;101298.19;4501233;31;20538;-65
2022/01/15 03:31:03;;;;;;;15.38;7.62;;;;;;;1.12;95.55;101299.69;4501247;31;20183;-65
2022/01/15 03:33:32;;;;;;;15.93;8.00;;;;;;;1.13;95.07;101312.75;4501005;31;20497;-64
2022/01/15 03:35:59;;;;;;;15.65;7.60;;;;;;;1.28;94.77;101306.41;4501227;31;20125;-65
2022/01/15 03:38:26;;;;;;;14.15;7.05;;;;;;;1.05;94.72;101310.66;4500995;31;20113;-64
2022/01/15 03:40:54;;;;;;;17.70;7.68;;;;;;;0.95;95.75;101312.88;4500935;31;20534;-64
2022/01/15 03:43:22;;;;;;;14.93;7.47;;;;;;;0.94;95.57;101311.09;4501041;31;20100;-64
2022/01/15 03:45:50;;;;;;;15.23;7.20;;;;;;;1.01;95.83;101311.34;4501082;31;20122;-64
2022/01/15 03:48:17;;;;;;;10.75;6.65;;;;;;;1.10;95.49;101317.81;4500903;31;20083;-64
2022/01/15 03:50:44;;;;;;;13.65;7.20;;;;;;;1.27;94.54;101309.81;4500845;31;20119;-64
2022/01/15 03:53:12;;;;;;;13.68;7.60;;;;;;;1.16;94.42;101315.44;4500744;31;20141;-64
2022/01/15 03:55:39;;;;;;;15.15;7.30;;;;;;;1.11;94.87;101321.28;4500753;31;20129;-64
2022/01/15 03:58:06;;;;;;;13.30;7.18;;;;;;;1.13;95.27;101327.41;4500756;31;20383;-64
2022/01/15 04:00:33;;;;;;;12.02;7.18;;;;;;;1.05;95.83;101334.00;4502487;31;20115;-64
2022/01/15 04:03:03;;;;;;;18.70;7.62;;;;;;;1.04;95.82;101340.03;4502701;31;20215;-64
2022/01/15 04:05:31;;;;;;;13.23;6.57;;;;;;;1.01;95.86;101337.31;4502839;31;20096;-64
2022/01/15 04:07:58;;;;;;;16.27;7.37;;;;;;;1.08;95.51;101336.75;4502719;31;20375;-65
2022/01/15 04:10:26;;;;;;;15.35;7.10;;;;;;;1.04;95.77;101348.69;4502864;31;20552;-64
2022/01/15 04:12:53;;;;;;;13.02;7.37;;;;;;;1.02;95.49;101352.03;4502681;31;20123;-64
2022/01/15 04:15:21;;;;;;;13.45;7.28;;;;;;;0.86;96.13;101355.72;4502667;31;20527;-64
2022/01/15 04:17:49;;;;;;;13.45;7.22;;;;;;;0.83;96.44;101348.66;4502531;31;20191;-64
2022/01/15 04:20:21;;;;;;;16.00;7.95;;;;;;;0.84;96.96;101359.94;4502577;31;20088;-64
2022/01/15 04:22:51;;;;;;;11.55;6.20;;;;;;;0.95;96.92;101359.59;4502712;31;20465;-64
2022/01/15 04:25:18;;;;;;;13.82;7.82;;;;;;;0.97;96.40;101371.72;4502729;31;20126;-64
2022/01/15 04:27:46;;;;;;;13.40;7.22;;;;;;;0.99;96.19;101357.09;4502621;31;20138;-64
2022/01/15 04:30:15;;;;;;;14.45;7.47;;;;;;;0.98;96.17;101360.53;4502730;31;20084;-64
2022/01/15 04:32:42;;;;;;;16.15;7.12;;;;;;;1.01;96.12;101363.25;4502781;31;20154;-64
2022/01/15 04:35:10;;;;;;;13.90;7.32;;;;;;;0.88;96.33;101367.94;4502541;31;20446;-64
2022/01/15 04:37:47;;;;;;;17.08;7.57;;;;;;;0.88;96.44;101370.53;4502613;31;20095;-64
2022/01/15 04:40:16;;;;;;;10.40;6.10;;;;;;;0.88;96.06;101369.63;4502562;31;20092;-64
2022/01/15 04:42:44;;;;;;;11.10;6.93;;;;;;;0.86;96.52;101361.78;4487805;31;20175;-64
2022/01/15 04:45:11;;;;;;;16.10;7.82;;;;;;;0.90;95.99;101355.00;4502378;31;20142;-64
2022/01/15 04:47:39;;;;;;;11.00;6.30;;;;;;;0.87;96.21;101354.88;4502423;31;20075;-64
2022/01/15 04:50:10;;;;;;;13.50;6.90;;;;;;;1.01;95.64;101353.75;4502442;31;20088;-64
2022/01/15 04:52:38;;;;;;;13.98;6.90;;;;;;;1.06;95.12;101362.63;4502387;31;20171;-64
2022/01/15 04:55:07;;;;;;;15.35;6.68;;;;;;;0.93;95.52;101363.81;4502337;31;20155;-64
2022/01/15 04:57:35;;;;;;;8.38;4.82;;;;;;;1.00;95.20;101371.88;4502426;31;20610;-64
2022/01/15 05:00:12;;;;;;;13.30;6.57;;;;;;;1.02;95.40;101365.91;4502304;31;20434;-64
2022/01/15 05:02:39;;;;;;;;;;;;;;;1.16;94.22;101369.06;4502687;31;20091;-64
2022/01/15 05:05:08;;;;;;;12.13;6.53;;;;;;;1.03;94.38;101365.09;4502504;31;20421;-64
2022/01/15 05:07:35;;;;;;;14.18;6.10;;;;;;;0.98;94.96;101369.19;4502085;31;20162;-64
2022/01/15 05:10:05;;;;;;;8.35;5.53;;;;;;;1.11;94.63;101355.03;4501840;31;20660;-64
2022/01/15 05:12:40;;;;;;;11.93;6.18;;;;;;;1.14;94.29;101358.66;4501865;31;20122;-64
2022/01/15 05:15:08;;;;;;;15.82;7.22;;;;;;;1.14;94.01;101356.06;4502239;31;20394;-64
2022/01/15 05:17:35;;;;;;;11.73;5.90;;;;;;;1.28;93.70;101340.16;4502353;31;20428;-64
2022/01/15 05:20:03;;;;;;;12.70;7.05;;;;;;;1.28;93.25;101359.22;4502086;31;20084;-64
2022/01/15 05:22:31;;;;;;;13.20;6.62;;;;;;;1.27;93.38;101359.13;4502137;31;20544;-64
2022/01/15 05:24:58;;;;;;;11.48;5.87;;;;;;;1.20;93.61;101355.41;4502175;31;20103;-64
2022/01/15 05:27:26;;;;;;;12.20;6.50;;;;;;;1.15;93.70;101352.63;4502110;31;20083;-64
2022/01/15 05:29:53;;;;;;;12.43;4.78;;;;;;;1.11;93.88;101355.91;4502201;31;20084;-64
2022/01/15 05:32:23;;;;;;;10.63;5.70;;;;;;;1.04;94.29;101355.59;4502076;31;20088;-64
2022/01/15 05:34:50;;;;;;;17.92;7.07;;;;;;;1.03;94.71;101353.84;4502016;31;20103;-64
2022/01/15 05:37:18;;;;;;;17.52;5.78;;;;;;;1.05;94.14;101355.66;4502161;31;20087;-64
2022/01/15 05:39:45;;;;;;;8.73;4.93;;;;;;;1.01;94.37;101358.06;4501991;31;20095;-64
2022/01/15 05:42:12;;;;;;;10.07;5.53;;;;;;;1.06;94.21;101351.34;4502182;31;20114;-64
2022/01/15 05:44:39;;;;;;;11.18;5.45;;;;;;;1.13;93.58;101358.56;4501988;31;20515;-64
2022/01/15 05:47:08;;;;;;;7.72;4.72;;;;;;;1.21;93.20;101374.50;4502011;31;20118;-64
2022/01/15 05:49:36;;;;;;;13.80;5.37;;;;;;;1.22;92.89;101371.06;4501852;31;20092;-64
2022/01/15 05:52:04;;;;;;;11.95;5.30;;;;;;;1.19;92.72;101374.41;4502117;31;20130;-64
2022/01/15 05:54:31;;;;;;;12.55;5.68;;;;;;;1.10;93.25;101379.22;4501917;31;20518;-64
2022/01/15 05:56:59;;;;;;;11.90;6.18;;;;;;;1.17;92.77;101381.25;4501853;31;20428;-64
2022/01/15 05:59:26;;;;;;;9.88;3.53;;;;;;;1.11;92.53;101379.28;4501989;31;20118;-64
2022/01/15 06:01:53;;;;;;;10.38;5.65;;;;;;;1.21;92.35;101382.28;4501851;31;20126;-64
2022/01/15 06:04:21;;;;;;;12.07;5.22;;;;;;;1.22;92.07;101389.22;4502224;31;20099;-64
2022/01/15 06:06:48;;;;;;;12.23;4.93;;;;;;;1.22;91.89;101382.31;4502073;31;20138;-64
2022/01/15 06:09:20;;;;;;;11.40;5.70;;;;;;;1.20;91.81;101389.16;4501952;31;20746;-64
2022/01/15 06:11:48;;;;;;;8.95;4.22;;;;;;;1.18;91.81;101393.41;4501926;31;20160;-64
2022/01/15 06:14:15;;;;;;;6.35;3.70;;;;;;;1.23;91.77;101396.19;4501738;31;20493;-64
2022/01/15 06:16:42;;;;;;;9.55;4.72;;;;;;;1.33;91.12;101398.34;4497154;31;143165;-64
2022/01/15 06:19:09;;;;;;;9.43;5.72;;;;;;;1.25;91.25;101402.34;4501935;31;20164;-64
2022/01/15 06:21:36;;;;;;;10.98;5.82;;;;;;;1.25;91.17;101405.81;4501430;31;20087;-64
2022/01/15 06:24:03;;;;;;;9.38;5.15;;;;;;;1.17;91.56;101407.22;4501712;31;20126;-64
2022/01/15 06:26:31;;;;;;;7.85;4.05;;;;;;;1.15;91.77;101406.25;4501660;31;20121;-64
2022/01/15 06:28:58;;;;;;;12.63;5.20;;;;;;;1.20;91.50;101399.53;4501851;31;20088;-64
2022/01/15 06:31:28;;;;;;;12.27;4.87;;;;;;;1.11;91.81;101402.63;4501639;31;20107;-64
2022/01/15 06:33:55;;;;;;;8.55;5.40;;;;;;;1.09;91.85;101398.19;4502000;31;20170;-64
2022/01/15 06:36:22;;;;;;;12.32;4.35;;;;;;;1.06;91.80;101398.97;4501691;31;20076;-64
2022/01/15 06:38:49;;;;;;;12.77;4.97;;;;;;;1.07;92.17;101411.12;4501705;31;20114;-65
2022/01/15 06:41:17;;;;;;;10.73;5.78;;;;;;;1.02;92.28;101411.72;4501636;31;20171;-65
2022/01/15 06:43:44;;;;;;;10.45;4.25;;;;;;;1.01;92.26;101415.16;4501665;31;20489;-64
2022/01/15 06:46:12;;;;;;;10.80;5.60;;;;;;;1.07;92.02;101418.03;4501381;31;20072;-65
2022/01/15 06:48:40;;;;;;;15.40;6.30;;;;;;;1.03;92.16;101419.59;4501849;31;20383;-65
2022/01/15 06:51:07;;;;;;;14.35;5.55;;;;;;;0.91;92.81;101414.75;4501624;31;20095;-64
2022/01/15 06:53:34;;;;;;;13.15;6.25;;;;;;;0.91;92.98;101424.25;4501556;31;20103;-65
2022/01/15 06:56:01;;;;;;;12.75;6.05;;;;;;;1.01;92.45;101417.75;4501659;31;20163;-64
2022/01/15 06:58:28;;;;;;;12.55;5.87;;;;;;;1.09;92.09;101426.75;4501592;31;20159;-65
2022/01/15 07:00:56;;;;;;;14.70;5.90;;;;;;;1.03;92.39;101434.28;4501539;31;20471;-65
2022/01/15 07:03:23;;;;;;;12.37;5.72;;;;;;;1.00;92.20;101434.16;4501514;31;20103;-64
2022/01/15 07:05:50;;;;;;;12.68;5.40;;;;;;;1.14;91.67;101446.03;4501458;31;20483;-64
2022/01/15 07:08:17;;;;;;;11.70;6.15;;;;;;;1.09;91.68;101439.72;4501302;31;20116;-65
2022/01/15 07:10:45;;;;;;;16.23;5.80;;;;;;;1.16;91.28;101436.56;4486657;31;20151;-65
2022/01/15 07:13:12;;;;;;;19.60;6.35;;;;;;;1.11;91.33;101438.09;4501324;31;20103;-64
2022/01/15 07:15:39;;;;;;;13.98;5.40;;;;;;;1.24;90.68;101431.69;4501301;31;20154;-64
2022/01/15 07:18:06;;;;;;;10.18;5.72;;;;;;;1.27;90.12;101434.44;4501281;31;20164;-64
2022/01/15 07:20:33;;;;;;;10.38;5.70;;;;;;;1.35;89.76;101439.16;4501127;31;20150;-64
2022/01/15 07:23:00;;;;;;;8.80;4.12;;;;;;;1.46;88.77;101439.59;4501266;31;20129;-64
2022/01/15 07:25:28;;;;;;;11.48;5.75;;;;;;;1.53;88.32;101439.03;4501539;31;20084;-64
2022/01/15 07:27:55;;;;;;;9.55;5.55;;;;;;;1.51;88.30;101456.25;4501081;31;20111;-64
2022/01/15 07:30:23;;;;;;;13.90;5.15;;;;;;;1.55;88.18;101452.06;4501186;31;20091;-64
2022/01/15 07:32:51;;;;;;;14.30;5.82;;;;;;;1.65;87.58;101452.50;4501105;31;20103;-64
2022/01/15 07:35:18;;;;;;;13.70;5.90;;;;;;;1.60;87.45;101448.84;4500163;31;20147;-64
2022/01/15 07:37:45;;;;;;;7.35;4.40;;;;;;;1.60;87.70;101450.56;4501350;31;20196;-65
2022/01/15 07:40:13;;;;;;;9.48;3.97;;;;;;;1.73;87.00;101447.63;4501128;31;20178;-64
2022/01/15 07:42:40;;;;;;;10.32;5.07;;;;;;;1.84;86.31;101455.88;4501078;31;20505;-64
2022/01/15 07:45:13;;;;;;;14.10;5.37;;;;;;;1.87;85.98;101451.69;4500935;31;20092;-64
2022/01/15 07:47:42;;;;;;;8.85;4.22;;;;;;;1.94;85.62;101452.81;4500962;31;20982;-64
2022/01/15 07:50:13;;;;;;;9.60;4.55;;;;;;;2.04;85.05;101454.06;4500913;31;20114;-64
2022/01/15 07:52:40;;;;;;;9.95;4.93;;;;;;;2.07;84.37;101459.38;4500888;31;20142;-64
2022/01/15 07:55:08;;;;;;;8.60;4.40;;;;;;;2.12;84.17;101458.75;4500773;31;20072;-64
2022/01/15 07:57:55;;;;;;;;;;;;;;;2.16;84.06;101470.16;4501296;31;20079;-64
2022/01/15 08:00:23;;;;;;;11.02;5.57;;;;;;;2.31;82.77;101465.56;4500860;31;20011;-64
2022/01/15 08:02:50;;;;;;;14.27;5.65;;;;;;;2.34;82.54;101454.41;4500659;31;20118;-66
2022/01/15 08:05:17;;;;;;;7.55;4.12;;;;;;;2.38;82.36;101484.87;4500663;31;20503;-66
2022/01/15 08:07:44;;;;;;;11.70;4.28;;;;;;;2.48;81.58;101463.63;4500520;31;20118;-66
2022/01/15 08:10:12;;;;;;;8.10;3.97;;;;;;;2.53;80.78;101464.66;4500550;31;20179;-66
2022/01/15 08:12:48;;;;;;;9.27;3.62;;;;;;;2.65;80.20;101466.84;4500594;31;20180;-67
2022/01/15 08:15:17;;;;;;;11.90;3.95;;;;;;;2.70;79.72;101467.03;4500528;31;20602;-66
2022/01/15 08:17:45;;;;;;;7.18;3.25;;;;;;;2.78;79.44;101474.28;4500515;31;20099;-66
2022/01/15 08:20:13;;;;;;;14.18;4.72;;;;;;;2.78;79.25;101476.00;4500311;31;20441;-66
2022/01/15 08:22:42;;;;;;;4.95;3.55;;;;;;;2.85;78.76;101471.06;4500302;31;20108;-66
2022/01/15 08:25:11;;;;;;;19.83;5.37;;;;;;;2.88;78.13;101470.28;4500279;31;20088;-66
2022/01/15 08:27:38;;;;;;;7.57;3.53;;;;;;;2.91;78.23;101474.75;4500360;31;20229;-67
2022/01/15 08:30:07;;;;;;;6.18;3.17;;;;;;;2.99;77.41;101481.09;4500513;31;20516;-67
2022/01/15 08:32:35;;;;;;;12.63;3.37;;;;;;;2.98;77.57;101482.81;4500319;31;20108;-67
2022/01/15 08:35:05;;;;;;;14.98;3.80;;;;;;;3.00;77.21;101477.66;4500301;31;20079;-66
2022/01/15 08:37:34;;;;;;;13.80;4.20;;;;;;;3.12;76.34;101484.22;4500407;31;20379;-66
2022/01/15 08:40:02;;;;;;;8.32;3.75;;;;;;;3.18;75.90;101493.97;4500123;31;20549;-67
2022/01/15 08:42:29;;;;;;;9.30;3.53;;;;;;;3.19;75.10;101481.84;4500210;31;20100;-67
2022/01/15 08:44:56;;;;;;;4.85;2.47;;;;;;;3.29;75.17;101479.59;4500709;31;20492;-66
2022/01/15 08:47:23;;;;;;;4.82;3.12;;;;;;;3.34;73.90;101482.34;4502406;31;20092;-67
2022/01/15 08:49:50;;;;;;;4.43;2.28;;;;;;;3.40;74.18;101479.09;4502468;31;20482;-66
2022/01/15 08:52:18;;;;;;;7.87;2.40;;;;;;;3.47;73.24;101481.09;4502384;31;20163;-66
2022/01/15 08:54:45;;;;;;;6.78;3.75;;;;;;;3.50;73.06;101496.81;4502409;31;20092;-67
2022/01/15 08:57:12;;;;;;;7.87;3.03;;;;;;;3.56;73.33;101497.00;4502594;31;20091;-67
2022/01/15 08:59:39;;;;;;;8.07;3.12;;;;;;;3.62;72.68;101497.22;4502536;31;20171;-67
2022/01/15 09:02:07;;;;;;;12.02;3.33;;;;;;;3.66;72.25;101495.63;4502252;31;20107;-67
2022/01/15 09:04:34;;;;;;;3.95;1.98;;;;;;;3.70;72.16;101505.31;4502515;31;20080;-67
2022/01/15 09:07:03;;;;;;;11.40;2.97;;;;;;;3.75;71.70;101501.16;4502309;31;20144;-66
2022/01/15 09:09:30;;;;;;;6.12;2.55;;;;;;;3.79;71.59;101503.91;4502298;31;20572;-66
2022/01/15 09:11:57;;;;;;;8.35;3.53;;;;;;;3.81;70.87;101493.50;4502244;31;20127;-67
2022/01/15 09:14:25;;;;;;;9.20;3.15;;;;;;;3.90;71.70;101486.00;4502214;31;20160;-67
2022/01/15 09:16:52;;;;;;;4.12;2.47;;;;;;;4.08;69.84;101490.94;4502166;31;20095;-67
2022/01/15 09:19:19;;;;;;;8.85;3.35;;;;;;;4.16;69.26;101486.84;4487344;31;20107;-67
2022/01/15 09:21:47;;;;;;;8.05;2.37;;;;;;;4.12;68.77;101498.00;4502308;31;20099;-67
2022/01/15 09:24:14;;;;;;;8.90;2.80;;;;;;;4.23;68.34;101494.03;4502279;31;20080;-67
2022/01/15 09:32:07;;;;;;;4.57;2.47;;;;;;;4.32;66.90;101480.41;4502366;31;20133;-67
2022/01/15 09:34:36;;;;;;;7.03;2.17;;;;;;;4.41;66.49;101483.28;4502344;31;20418;-67
2022/01/15 09:37:07;;;;;;;5.95;2.15;;;;;;;4.41;66.29;101483.28;4502113;31;20511;-66
2022/01/15 09:39:35;;;;;;;5.43;2.05;;;;;;;4.53;65.51;101490.59;4502024;31;20095;-67
2022/01/15 09:42:04;;;;;;;9.77;2.53;;;;;;;4.47;65.70;101482.59;4502267;31;20088;-67
2022/01/15 09:44:34;;;;;;;10.48;2.17;;;;;;;4.51;65.92;101480.09;4502189;31;20091;-67
2022/01/15 09:47:02;;;;;;;6.10;2.03;;;;;;;4.73;65.76;101479.00;4501938;31;20118;-67
2022/01/15 09:49:31;;;;;;;9.23;3.50;;;;;;;4.86;64.71;101484.59;4502065;31;20599;-67
2022/01/15 09:52:02;;;;;;;5.45;2.25;;;;;;;4.83;64.04;101480.19;4502118;31;20103;-67
2022/01/15 09:54:29;;;;;;;6.47;2.58;;;;;;;4.82;63.54;101488.84;4502041;31;20072;-67
2022/01/15 09:56:57;;;;;;;5.75;2.28;;;;;;;4.92;63.68;101479.56;4501352;31;20175;-67
2022/01/15 09:59:24;;;;;;;12.65;2.53;;;;;;;4.97;62.93;101484.06;4501839;31;20088;-67
2022/01/15 10:01:51;;;;;;;8.50;2.42;;;;;;;5.09;63.07;101478.31;4502045;31;20111;-67
2022/01/15 10:04:18;;;;;;;11.00;2.60;;;;;;;5.33;62.70;101474.59;4501772;31;20121;-67
2022/01/15 10:07:05;;;;;;;6.57;2.40;;;;;;;5.53;61.38;101480.34;4501765;31;20550;-67
2022/01/15 10:09:33;;;;;;;10.70;3.03;;;;;;;5.44;60.90;101476.66;4501918;31;20083;-67
2022/01/15 10:12:00;;;;;;;8.43;2.25;;;;;;;5.61;60.46;101479.69;4501824;31;20095;-68
2022/01/15 10:14:49;;;;;;;6.93;2.40;;;;;;;5.84;58.63;101472.47;4501776;31;20152;-67
2022/01/15 10:17:23;;;;;;;7.45;2.58;;;;;;;5.95;58.96;101470.13;4501785;31;20127;-65
2022/01/15 10:19:51;;;;;;;10.00;3.12;;;;;;;6.21;57.95;101463.78;4501597;31;20092;-65
2022/01/15 10:22:23;;;;;;;6.68;2.50;;;;;;;6.19;57.87;101477.69;4501669;31;20448;-64
2022/01/15 10:25:07;;;;;;;10.70;2.70;;;;;;;6.14;56.71;101485.41;4501829;31;20072;-64
2022/01/15 10:27:38;;;;;;;10.18;2.80;;;;;;;5.96;56.77;101471.91;4501750;31;20143;-65
2022/01/15 10:30:07;;;;;;;7.20;2.95;;;;;;;6.03;57.04;101478.16;4501689;31;20521;-65
2022/01/15 10:32:37;;;;;;;9.23;3.10;;;;;;;6.07;56.92;101475.66;4501670;31;20095;-65
2022/01/15 10:35:14;;;;;;;6.40;2.72;;;;;;;6.45;57.18;101473.03;4501842;31;20174;-65
2022/01/15 10:37:49;;;;;;;4.87;2.20;;;;;;;7.07;54.01;101470.87;4501755;31;20391;-65
2022/01/15 10:40:17;;;;;;;10.52;3.35;;;;;;;7.16;52.77;101463.16;4501662;31;20099;-66
2022/01/15 10:42:51;;;;;;;6.25;2.45;;;;;;;8.00;51.98;101473.41;4501635;31;20435;-65
2022/01/15 10:45:18;;;;;;;16.83;3.15;;;;;;;8.75;47.77;101474.53;4501890;31;20071;-65
2022/01/15 10:47:49;;;;;;;5.62;3.08;;;;;;;9.14;46.85;101462.72;4501492;31;20110;-65
2022/01/15 10:50:30;;;;;;;6.05;2.17;;;;;;;9.79;45.19;101454.63;4501556;31;20103;-65
2022/01/15 10:53:04;;;;;;;5.03;2.33;;;;;;;10.63;43.05;101452.56;4501745;31;20163;-65
2022/01/15 10:55:33;;;;;;;6.78;2.33;;;;;;;10.86;42.86;101460.59;4501571;31;20083;-65
2022/01/15 10:58:04;;;;;;;11.35;2.28;;;;;;;10.79;42.88;101456.16;4501542;31;20095;-66
2022/01/15 11:00:41;;;;;;;8.13;2.10;;;;;;;11.32;42.12;101444.91;4501767;31;20092;-66
2022/01/15 11:03:12;;;;;;;7.28;2.60;;;;;;;11.28;41.18;101447.53;4501502;31;20155;-65
2022/01/15 11:05:44;;;;;;;4.53;2.25;;;;;;;10.95;41.13;101457.09;4501386;31;20101;-65
2022/01/15 11:08:17;;;;;;;4.65;2.15;;;;;;;10.88;40.33;101456.19;4500634;31;20084;-66
2022/01/15 11:10:45;;;;;;;7.43;1.80;;;;;;;11.23;39.19;101436.94;4501281;31;20532;-66
2022/01/15 11:13:15;;;;;;;6.70;2.35;;;;;;;11.49;38.68;101429.97;4501366;31;20551;-65
2022/01/15 11:15:47;;;;;;;4.87;1.95;;;;;;;11.26;39.00;101434.31;4501505;31;20388;-65
2022/01/15 11:18:22;;;;;;;8.38;2.22;;;;;;;10.92;39.78;101421.06;4501559;31;20075;-66
2022/01/15 11:20:52;;;;;;;4.25;1.52;;;;;;;10.79;39.74;101424.53;4501354;31;20171;-66
2022/01/15 11:23:22;;;;;;;5.37;2.05;;;;;;;11.45;38.64;101424.69;4501375;31;20118;-66
2022/01/15 11:25:52;;;;;;;9.10;2.10;;;;;;;12.14;38.32;101412.38;4501234;31;20102;-66
2022/01/15 11:28:23;;;;;;;8.30;2.70;;;;;;;12.27;36.54;101410.59;4501144;31;20115;-68
2022/01/15 11:30:56;;;;;;;6.03;2.45;;;;;;;11.72;37.78;101418.53;4501421;31;20112;-66
2022/01/15 11:33:28;;;;;;;5.78;2.03;;;;;;;11.90;38.87;101415.03;4501251;31;20474;-66
2022/01/15 11:35:56;;;;;;;6.97;2.28;;;;;;;13.28;35.63;101426.03;4501124;31;20067;-66
2022/01/15 11:38:43;;;;;;;7.20;2.30;;;;;;;13.42;35.18;101420.63;4500924;31;20111;-66
2022/01/15 11:41:26;;;;;;;6.75;2.33;;;;;;;13.74;34.22;101409.78;4501099;31;20550;-66
2022/01/15 11:43:54;;;;;;;4.25;2.30;;;;;;;14.08;33.55;101415.69;4501053;31;20150;-66
2022/01/15 11:46:32;;;;;;;7.12;2.10;;;;;;;14.01;34.57;101419.28;4501002;31;20092;-66
2022/01/15 11:49:27;;;;;;;14.70;2.90;;;;;;;13.95;33.88;101419.31;4486261;31;20110;-66
2022/01/15 11:52:22;;;;;;;7.10;2.33;;;;;;;13.54;34.71;101423.22;4501188;31;20114;-66
2022/01/15 11:54:49;;;;;;;5.57;1.80;;;;;;;13.78;36.09;101405.34;4500799;31;20258;-66
2022/01/15 11:57:20;;;;;;;7.40;2.42;;;;;;;14.17;33.86;101408.50;4500908;31;20080;-65